Time;durP1;ratioP1;P1;durP2;ratioP2;P2;SDS_P1;SDS_P2;PMS_P1;PMS_P2;Temp;Humidity;BMP_temperature;BMP_pressure;BME280_temperature;BME280_humidity;BME280_pressure;Samples;Min_cycle;Max_cycle;Signal;HPM_P1;HPM_P2
2021/09/16 00:00:38;;;;;;;29.50;12.52;;;;;;;;;;357534;150;857766;-59
2021/09/16 00:01:40;;;;;;;23.94;13.23;;;;;;;;;;358974;149;857665;-59
2021/09/16 00:02:41;;;;;;;21.66;13.04;;;;;;;;;;357493;149;867058;-59
2021/09/16 00:03:43;;;;;;;26.74;13.20;;;;;;;;;;356160;149;858126;-59
2021/09/16 00:04:44;;;;;;;23.32;12.92;;;;;;;;;;354179;147;857527;-59
2021/09/16 00:05:46;;;;;;;22.11;13.01;;;;;;;;;;357068;149;859423;-58
2021/09/16 00:06:48;;;;;;;25.66;13.95;;;;;;;;;;358124;149;858588;-59
2021/09/16 00:07:49;;;;;;;22.62;13.10;;;;;;;;;;356955;150;864909;-59
2021/09/16 00:08:51;;;;;;;23.16;13.41;;;;;;;;;;356609;149;857305;-58
2021/09/16 00:09:52;;;;;;;25.96;13.51;;;;;;;;;;356653;149;857935;-59
2021/09/16 00:10:54;;;;;;;27.07;13.75;;;;;;;;;;356063;150;858171;-58
2021/09/16 00:11:56;;;;;;;25.61;12.71;;;;;;;;;;357078;149;865690;-59
2021/09/16 00:12:57;;;;;;;26.14;14.04;;;;;;;;;;357359;149;859202;-59
2021/09/16 00:13:59;;;;;;;24.51;12.63;;;;;;;;;;357386;149;864864;-59
2021/09/16 00:15:00;;;;;;;23.32;13.41;;;;;;;;;;358945;149;857830;-59
2021/09/16 00:16:02;;;;;;;22.33;11.99;;;;;;;;;;355557;150;859581;-59
2021/09/16 00:17:04;;;;;;;25.06;13.46;;;;;;;;;;357568;149;865844;-59
2021/09/16 00:18:05;;;;;;;27.32;13.05;;;;;;;;;;357333;149;857468;-59
2021/09/16 00:19:07;;;;;;;22.10;12.46;;;;;;;;;;357844;149;859587;-58
2021/09/16 00:20:10;;;;;;;24.40;12.86;;;;;;;;;;356363;149;864826;-59
2021/09/16 00:21:12;;;;;;;24.47;12.84;;;;;;;;;;358125;149;858422;-59
2021/09/16 00:22:13;;;;;;;27.19;13.05;;;;;;;;;;357321;149;858559;-59
2021/09/16 00:23:15;;;;;;;31.22;13.39;;;;;;;;;;355199;147;857896;-59
2021/09/16 00:24:16;;;;;;;23.54;13.15;;;;;;;;;;357286;150;857212;-58
2021/09/16 00:25:18;;;;;;;20.16;13.13;;;;;;;;;;357147;149;864783;-59
2021/09/16 00:26:20;;;;;;;25.09;12.78;;;;;;;;;;356903;148;857145;-58
2021/09/16 00:27:22;;;;;;;26.41;13.07;;;;;;;;;;357362;149;864628;-59
2021/09/16 00:28:23;;;;;;;21.43;12.15;;;;;;;;;;357206;149;857687;-58
2021/09/16 00:29:25;;;;;;;20.24;12.66;;;;;;;;;;355727;149;858407;-58
2021/09/16 00:30:27;;;;;;;22.09;13.41;;;;;;;;;;355589;149;857303;-59
2021/09/16 00:31:28;;;;;;;25.84;13.48;;;;;;;;;;358688;149;857197;-59
2021/09/16 00:32:30;;;;;;;28.24;12.36;;;;;;;;;;355946;150;864716;-59
2021/09/16 00:33:32;;;;;;;26.76;13.34;;;;;;;;;;358982;150;857153;-59
2021/09/16 00:34:33;;;;;;;23.47;12.59;;;;;;;;;;356821;150;857581;-58
2021/09/16 00:35:35;;;;;;;30.19;13.40;;;;;;;;;;355746;148;857342;-59
2021/09/16 00:36:38;;;;;;;22.86;12.03;;;;;;;;;;350873;151;857343;-59
2021/09/16 00:37:40;;;;;;;22.86;12.54;;;;;;;;;;356049;149;860042;-59
2021/09/16 00:38:41;;;;;;;25.68;12.46;;;;;;;;;;365881;146;857201;-59
2021/09/16 00:39:43;;;;;;;24.07;12.37;;;;;;;;;;365862;146;857173;-58
2021/09/16 00:40:45;;;;;;;21.58;12.69;;;;;;;;;;363070;147;857311;-58
2021/09/16 00:41:46;;;;;;;23.99;12.28;;;;;;;;;;366491;147;865787;-59
2021/09/16 00:42:48;;;;;;;21.89;11.71;;;;;;;;;;365889;144;860281;-59
2021/09/16 00:43:49;;;;;;;23.47;12.05;;;;;;;;;;363899;145;866852;-59
2021/09/16 00:44:51;;;;;;;25.79;13.35;;;;;;;;;;367445;145;857286;-59
2021/09/16 00:45:54;;;;;;;23.21;11.76;;;;;;;;;;365350;144;859584;-59
2021/09/16 00:46:58;;;;;;;28.62;13.09;;;;;;;;;;365219;144;859690;-60
2021/09/16 00:47:59;;;;;;;23.21;12.81;;;;;;;;;;366844;145;858019;-59
2021/09/16 00:49:03;;;;;;;23.61;12.49;;;;;;;;;;365554;144;864791;-59
2021/09/16 00:50:05;;;;;;;24.40;13.14;;;;;;;;;;363181;144;857438;-59
2021/09/16 00:51:07;;;;;;;24.53;13.45;;;;;;;;;;364231;145;865520;-59
2021/09/16 00:52:08;;;;;;;22.49;13.41;;;;;;;;;;364189;145;857173;-59
2021/09/16 00:53:10;;;;;;;23.08;12.90;;;;;;;;;;366003;144;857369;-59
2021/09/16 00:54:11;;;;;;;26.74;13.57;;;;;;;;;;366364;144;865461;-59
2021/09/16 00:55:13;;;;;;;21.28;11.90;;;;;;;;;;363825;145;858453;-59
2021/09/16 00:56:15;;;;;;;23.88;13.15;;;;;;;;;;364406;144;857965;-59
2021/09/16 00:57:17;;;;;;;28.20;12.86;;;;;;;;;;364785;144;857959;-59
2021/09/16 00:58:18;;;;;;;22.71;13.08;;;;;;;;;;367167;144;857145;-59
2021/09/16 00:59:20;;;;;;;25.15;12.39;;;;;;;;;;365959;145;864789;-59
2021/09/16 01:00:22;;;;;;;25.96;11.94;;;;;;;;;;364888;145;860611;-59
2021/09/16 01:01:24;;;;;;;29.01;12.93;;;;;;;;;;363810;144;857937;-59
2021/09/16 01:02:26;;;;;;;22.96;11.91;;;;;;;;;;365603;145;858248;-59
2021/09/16 01:03:27;;;;;;;24.08;12.86;;;;;;;;;;367230;144;864763;-59
2021/09/16 01:04:29;;;;;;;22.54;12.26;;;;;;;;;;364666;144;864755;-59
2021/09/16 01:05:31;;;;;;;25.43;12.81;;;;;;;;;;364241;144;857159;-60
2021/09/16 01:06:33;;;;;;;25.20;12.34;;;;;;;;;;363796;147;857065;-59
2021/09/16 01:07:37;;;;;;;22.55;12.21;;;;;;;;;;364937;144;857313;-60
2021/09/16 01:08:39;;;;;;;23.06;12.67;;;;;;;;;;363528;144;857163;-60
2021/09/16 01:09:42;;;;;;;23.45;12.38;;;;;;;;;;363814;145;866262;-60
2021/09/16 01:10:44;;;;;;;22.83;11.55;;;;;;;;;;364372;144;859005;-59
2021/09/16 01:11:46;;;;;;;21.04;12.11;;;;;;;;;;364696;144;857835;-59
2021/09/16 01:12:48;;;;;;;23.58;13.19;;;;;;;;;;364103;144;857393;-59
2021/09/16 01:13:49;;;;;;;23.57;12.62;;;;;;;;;;363723;147;859782;-59
2021/09/16 01:14:51;;;;;;;23.52;11.96;;;;;;;;;;365231;144;866670;-59
2021/09/16 01:15:52;;;;;;;22.86;13.36;;;;;;;;;;365493;145;858526;-59
2021/09/16 01:16:54;;;;;;;24.46;13.19;;;;;;;;;;363826;147;858835;-59
2021/09/16 01:17:56;;;;;;;20.54;11.91;;;;;;;;;;363758;145;857950;-59
2021/09/16 01:18:57;;;;;;;22.45;12.23;;;;;;;;;;365437;144;864915;-60
2021/09/16 01:19:59;;;;;;;25.44;12.93;;;;;;;;;;364545;144;857420;-59
2021/09/16 01:21:01;;;;;;;28.16;11.59;;;;;;;;;;363576;145;864870;-59
2021/09/16 01:22:04;;;;;;;23.92;12.49;;;;;;;;;;363664;144;857374;-59
2021/09/16 01:23:05;;;;;;;30.02;12.18;;;;;;;;;;363541;144;859649;-59
2021/09/16 01:24:07;;;;;;;22.37;12.54;;;;;;;;;;363842;144;857775;-59
2021/09/16 01:25:09;;;;;;;24.30;12.12;;;;;;;;;;363722;145;858081;-59
2021/09/16 01:26:12;;;;;;;23.56;11.82;;;;;;;;;;363524;144;866525;-59
2021/09/16 01:27:13;;;;;;;28.84;13.08;;;;;;;;;;364583;144;857656;-59
2021/09/16 01:28:15;;;;;;;21.71;12.44;;;;;;;;;;367129;145;861777;-59
2021/09/16 01:29:16;;;;;;;25.05;12.77;;;;;;;;;;367270;144;858954;-59
2021/09/16 01:30:18;;;;;;;20.05;12.35;;;;;;;;;;363608;145;856506;-59
2021/09/16 01:31:36;;;;;;;25.09;11.74;;;;;;;;;;364031;144;858551;-59
2021/09/16 01:32:37;;;;;;;22.53;11.86;;;;;;;;;;365303;144;864835;-59
2021/09/16 01:33:39;;;;;;;24.16;12.74;;;;;;;;;;365272;144;857806;-59
2021/09/16 01:34:40;;;;;;;26.68;12.87;;;;;;;;;;364021;144;864827;-59
2021/09/16 01:35:42;;;;;;;25.68;12.36;;;;;;;;;;364653;145;860543;-59
2021/09/16 01:36:45;;;;;;;23.45;13.31;;;;;;;;;;356254;147;864683;-59
2021/09/16 01:37:47;;;;;;;23.73;12.94;;;;;;;;;;353132;149;857256;-59
2021/09/16 01:38:48;;;;;;;24.21;12.56;;;;;;;;;;352442;151;857253;-59
2021/09/16 01:39:50;;;;;;;23.52;11.94;;;;;;;;;;355934;150;864743;-58
2021/09/16 01:40:52;;;;;;;23.26;11.63;;;;;;;;;;354851;150;866562;-59
2021/09/16 01:41:54;;;;;;;21.31;11.82;;;;;;;;;;352106;150;857847;-59
2021/09/16 01:42:56;;;;;;;22.88;12.40;;;;;;;;;;349539;150;858892;-58
2021/09/16 01:43:57;;;;;;;23.84;12.37;;;;;;;;;;367767;144;865009;-60
2021/09/16 01:44:59;;;;;;;22.23;12.54;;;;;;;;;;367073;144;857442;-59
2021/09/16 01:46:00;;;;;;;21.91;11.72;;;;;;;;;;369283;144;859093;-59
2021/09/16 01:47:02;;;;;;;23.81;12.76;;;;;;;;;;366248;144;858121;-58
2021/09/16 01:48:04;;;;;;;24.19;13.18;;;;;;;;;;366818;144;866284;-59
2021/09/16 01:49:05;;;;;;;26.73;12.47;;;;;;;;;;367130;144;857409;-59
2021/09/16 01:50:08;;;;;;;23.73;12.43;;;;;;;;;;370636;144;864764;-59
2021/09/16 01:51:10;;;;;;;25.07;12.53;;;;;;;;;;367571;144;856758;-59
2021/09/16 01:52:11;;;;;;;25.29;12.55;;;;;;;;;;367233;144;858617;-59
2021/09/16 01:53:13;;;;;;;23.48;12.14;;;;;;;;;;366052;147;857238;-59
2021/09/16 01:54:14;;;;;;;24.15;12.36;;;;;;;;;;366629;144;864661;-59
2021/09/16 01:55:16;;;;;;;19.55;10.51;;;;;;;;;;366319;144;857233;-58
2021/09/16 01:56:18;;;;;;;18.01;10.73;;;;;;;;;;366006;144;857095;-59
2021/09/16 01:57:20;;;;;;;23.08;12.19;;;;;;;;;;370135;144;857864;-59
2021/09/16 01:58:21;;;;;;;24.55;12.31;;;;;;;;;;368809;144;866573;-59
2021/09/16 01:59:23;;;;;;;23.31;11.91;;;;;;;;;;367688;144;865666;-58
2021/09/16 02:00:25;;;;;;;22.99;11.95;;;;;;;;;;368537;144;865402;-58
2021/09/16 02:01:26;;;;;;;24.84;11.79;;;;;;;;;;369115;144;859154;-58
2021/09/16 02:02:28;;;;;;;21.85;12.26;;;;;;;;;;366974;144;864799;-59
2021/09/16 02:03:30;;;;;;;25.60;12.56;;;;;;;;;;369519;144;857227;-59
2021/09/16 02:04:31;;;;;;;34.38;12.10;;;;;;;;;;368450;144;857148;-60
2021/09/16 02:05:33;;;;;;;23.07;11.59;;;;;;;;;;365944;144;857262;-60
2021/09/16 02:06:36;;;;;;;24.40;12.03;;;;;;;;;;366948;144;859459;-60
2021/09/16 02:07:37;;;;;;;17.91;11.29;;;;;;;;;;367256;144;864816;-60
2021/09/16 02:08:39;;;;;;;24.46;12.13;;;;;;;;;;368326;144;860845;-61
2021/09/16 02:09:41;;;;;;;24.78;12.39;;;;;;;;;;367089;144;865660;-60
2021/09/16 02:10:43;;;;;;;22.81;11.77;;;;;;;;;;367484;144;866031;-60
2021/09/16 02:11:44;;;;;;;27.89;13.45;;;;;;;;;;367906;144;858836;-60
2021/09/16 02:12:46;;;;;;;23.05;11.52;;;;;;;;;;366447;144;865023;-60
2021/09/16 02:13:47;;;;;;;20.31;11.51;;;;;;;;;;366070;144;864763;-60
2021/09/16 02:14:49;;;;;;;24.56;11.56;;;;;;;;;;367099;144;864820;-60
2021/09/16 02:15:50;;;;;;;24.54;12.19;;;;;;;;;;366941;144;857161;-60
2021/09/16 02:16:52;;;;;;;19.06;11.76;;;;;;;;;;366839;144;857291;-60
2021/09/16 02:17:54;;;;;;;20.67;11.08;;;;;;;;;;367165;144;866347;-60
2021/09/16 02:18:55;;;;;;;20.80;12.08;;;;;;;;;;366230;144;859346;-60
2021/09/16 02:19:57;;;;;;;24.31;12.74;;;;;;;;;;366874;144;865055;-60
2021/09/16 02:21:00;;;;;;;21.33;11.78;;;;;;;;;;366849;144;858886;-60
2021/09/16 02:22:02;;;;;;;21.75;12.11;;;;;;;;;;365885;144;857725;-60
2021/09/16 02:23:04;;;;;;;28.29;12.38;;;;;;;;;;370030;144;865536;-59
2021/09/16 02:24:05;;;;;;;19.96;11.34;;;;;;;;;;368988;144;864916;-60
2021/09/16 02:25:07;;;;;;;24.01;12.04;;;;;;;;;;365841;144;857327;-59
2021/09/16 02:26:11;;;;;;;23.32;13.13;;;;;;;;;;366812;144;859085;-59
2021/09/16 02:27:12;;;;;;;24.15;12.07;;;;;;;;;;366519;144;865322;-58
2021/09/16 02:28:14;;;;;;;24.04;12.27;;;;;;;;;;366735;144;864614;-59
2021/09/16 02:29:15;;;;;;;19.49;11.28;;;;;;;;;;367367;144;856763;-58
2021/09/16 02:30:18;;;;;;;26.37;12.10;;;;;;;;;;367429;144;857251;-58
2021/09/16 02:31:19;;;;;;;22.03;11.31;;;;;;;;;;370130;144;857165;-59
2021/09/16 02:32:21;;;;;;;25.76;12.63;;;;;;;;;;368156;144;865209;-58
2021/09/16 02:33:22;;;;;;;23.13;12.42;;;;;;;;;;369160;144;857239;-58
2021/09/16 02:34:24;;;;;;;22.93;12.16;;;;;;;;;;369314;144;857301;-59
2021/09/16 02:35:25;;;;;;;22.04;12.01;;;;;;;;;;366057;144;857313;-59
2021/09/16 02:36:28;;;;;;;22.68;12.13;;;;;;;;;;366769;144;857192;-59
2021/09/16 02:37:29;;;;;;;21.26;10.99;;;;;;;;;;365806;147;858875;-59
2021/09/16 02:38:31;;;;;;;22.26;12.41;;;;;;;;;;367117;144;862492;-59
2021/09/16 02:39:32;;;;;;;23.26;11.64;;;;;;;;;;366374;144;857550;-59
2021/09/16 02:40:34;;;;;;;22.69;11.99;;;;;;;;;;366945;144;864776;-59
2021/09/16 02:41:36;;;;;;;23.91;11.59;;;;;;;;;;366029;144;857249;-59
2021/09/16 02:42:38;;;;;;;22.26;11.20;;;;;;;;;;366561;144;864840;-59
2021/09/16 02:43:39;;;;;;;24.06;11.52;;;;;;;;;;365942;144;864636;-59
2021/09/16 02:44:41;;;;;;;23.17;11.88;;;;;;;;;;363188;147;860231;-58
2021/09/16 02:45:42;;;;;;;22.65;12.36;;;;;;;;;;366604;145;865260;-59
2021/09/16 02:46:46;;;;;;;19.01;11.34;;;;;;;;;;363209;144;857627;-59
2021/09/16 02:47:47;;;;;;;24.21;11.69;;;;;;;;;;364181;144;857353;-59
2021/09/16 02:48:49;;;;;;;21.72;12.46;;;;;;;;;;363690;145;857321;-59
2021/09/16 02:49:51;;;;;;;23.12;12.93;;;;;;;;;;365278;144;864663;-59
2021/09/16 02:50:52;;;;;;;23.86;11.61;;;;;;;;;;363284;145;857026;-59
2021/09/16 02:51:54;;;;;;;20.55;11.30;;;;;;;;;;363252;147;865282;-58
2021/09/16 02:52:56;;;;;;;20.65;11.86;;;;;;;;;;363654;145;857298;-59
2021/09/16 02:53:57;;;;;;;21.49;11.76;;;;;;;;;;364356;145;857457;-59
2021/09/16 02:54:59;;;;;;;17.41;9.64;;;;;;;;;;363417;144;857325;-59
2021/09/16 02:56:00;;;;;;;21.11;10.49;;;;;;;;;;363501;145;857251;-59
2021/09/16 02:57:02;;;;;;;23.07;12.62;;;;;;;;;;364540;144;857859;-59
2021/09/16 02:58:03;;;;;;;22.14;11.28;;;;;;;;;;363179;144;859667;-59
2021/09/16 02:59:05;;;;;;;20.81;11.61;;;;;;;;;;366012;145;866527;-61
2021/09/16 03:00:08;;;;;;;20.95;11.43;;;;;;;;;;363277;148;857285;-59
2021/09/16 03:01:09;;;;;;;19.37;11.39;;;;;;;;;;365816;145;858953;-59
2021/09/16 03:02:11;;;;;;;20.08;8.91;;;;;;;;;;366065;144;858877;-59
2021/09/16 03:03:12;;;;;;;19.75;12.24;;;;;;;;;;365405;145;857819;-59
2021/09/16 03:04:14;;;;;;;25.54;12.68;;;;;;;;;;365432;144;856344;-59
2021/09/16 03:05:15;;;;;;;29.15;14.04;;;;;;;;;;364445;144;858617;-59
2021/09/16 03:06:17;;;;;;;23.25;11.89;;;;;;;;;;364040;145;864498;-59
2021/09/16 03:07:19;;;;;;;19.78;11.95;;;;;;;;;;363667;148;864223;-59
2021/09/16 03:08:20;;;;;;;23.46;11.54;;;;;;;;;;365064;144;864174;-59
2021/09/16 03:09:23;;;;;;;25.51;12.19;;;;;;;;;;365374;144;856276;-59
2021/09/16 03:10:24;;;;;;;22.31;11.37;;;;;;;;;;364163;145;856396;-59
2021/09/16 03:11:26;;;;;;;20.36;11.54;;;;;;;;;;366440;144;863525;-59
2021/09/16 03:12:28;;;;;;;21.69;11.12;;;;;;;;;;364384;145;856777;-60
2021/09/16 03:13:29;;;;;;;19.05;11.44;;;;;;;;;;363654;144;863473;-59
2021/09/16 03:14:31;;;;;;;20.08;10.74;;;;;;;;;;364586;145;855977;-60
2021/09/16 03:15:32;;;;;;;24.91;11.71;;;;;;;;;;364018;144;863491;-59
2021/09/16 03:16:36;;;;;;;21.63;11.61;;;;;;;;;;363570;144;856021;-59
2021/09/16 03:17:37;;;;;;;20.71;11.96;;;;;;;;;;363662;147;855982;-59
2021/09/16 03:18:39;;;;;;;21.23;11.00;;;;;;;;;;363599;145;856071;-59
2021/09/16 03:21:30;;;;;;;20.09;11.44;;;;;;;7.95;67.46;100144.23;372794;141;868750;-59
2021/09/16 03:22:32;;;;;;;26.48;11.88;;;;;;;7.89;67.45;100160.54;364547;145;859295;-59
2021/09/16 03:23:34;;;;;;;21.93;11.64;;;;;;;7.95;67.36;100150.27;362682;144;857251;-59
2021/09/16 03:24:36;;;;;;;26.28;13.16;;;;;;;8.03;67.43;100150.33;363796;145;865233;-59
2021/09/16 03:25:37;;;;;;;23.32;10.69;;;;;;;8.15;67.28;100145.23;364608;144;864809;-59
2021/09/16 03:26:41;;;;;;;16.36;9.86;;;;;;;8.27;66.85;100143.56;362616;145;864953;-59
2021/09/16 03:27:43;;;;;;;18.77;10.51;;;;;;;8.34;66.53;100141.00;362929;144;858885;-59
2021/09/16 03:28:44;;;;;;;18.31;9.39;;;;;;;8.40;66.24;100135.02;363436;147;865984;-58
2021/09/16 03:29:46;;;;;;;15.31;8.92;;;;;;;8.41;66.29;100136.74;363469;146;857701;-59
2021/09/16 03:30:48;;;;;;;14.69;9.13;;;;;;;8.41;66.29;100136.74;362431;145;864992;-58
2021/09/16 03:31:52;;;;;;;15.69;9.46;;;;;;;8.40;66.36;100135.02;364433;145;857213;-59
2021/09/16 03:32:54;;;;;;;14.18;8.96;;;;;;;8.38;66.46;100134.16;359703;146;865232;-59
2021/09/16 03:33:55;;;;;;;15.06;8.79;;;;;;;8.40;66.67;100129.86;362495;145;866688;-59
2021/09/16 03:34:57;;;;;;;14.33;9.46;;;;;;;8.44;66.71;100131.59;363024;144;866311;-60
2021/09/16 03:35:59;;;;;;;14.64;9.93;;;;;;;8.44;66.69;100128.13;363653;147;865871;-60
2021/09/16 03:37:01;;;;;;;16.09;9.65;;;;;;;8.50;66.76;100135.97;363359;145;866794;-59
2021/09/16 03:38:03;;;;;;;16.08;9.80;;;;;;;8.55;66.71;100136.84;361476;145;857463;-60
2021/09/16 03:39:04;;;;;;;16.80;10.69;;;;;;;8.60;66.56;100135.14;361678;145;865578;-60
2021/09/16 03:40:08;;;;;;;15.59;9.93;;;;;;;8.60;66.67;100132.55;357705;147;865754;-60
2021/09/16 03:41:10;;;;;;;16.99;10.42;;;;;;;8.61;66.80;100130.82;358075;147;858326;-60
2021/09/16 03:42:12;;;;;;;20.11;11.36;;;;;;;8.65;67.02;100129.97;359381;147;857190;-60
2021/09/16 03:43:13;;;;;;;23.15;11.50;;;;;;;;;;354169;147;866484;-60
2021/09/16 03:44:15;;;;;;;22.43;11.46;;;;;;;;;;359207;147;863881;-60
2021/09/16 03:45:17;;;;;;;26.19;12.99;;;;;;;;;;355972;146;857308;-60
2021/09/16 03:46:19;;;;;;;20.07;12.06;;;;;;;;;;359784;148;858760;-60
2021/09/16 03:47:20;;;;;;;26.49;13.24;;;;;;;;;;359712;148;858053;-60
2021/09/16 03:48:22;;;;;;;24.44;12.75;;;;;;;;;;359156;148;858864;-60
2021/09/16 03:49:23;;;;;;;21.69;11.84;;;;;;;;;;357378;147;864772;-60
2021/09/16 03:50:26;;;;;;;23.59;12.87;;;;;;;;;;358648;147;857402;-60
2021/09/16 03:51:27;;;;;;;23.84;12.85;;;;;;;;;;359542;147;857271;-61
2021/09/16 03:52:29;;;;;;;25.84;12.26;;;;;;;;;;358202;147;860159;-60
2021/09/16 03:53:30;;;;;;;25.01;12.62;;;;;;;;;;358100;147;858908;-62
2021/09/16 03:54:32;;;;;;;22.90;11.58;;;;;;;;;;359519;148;859729;-61
2021/09/16 03:55:34;;;;;;;24.35;11.30;;;;;;;;;;357821;148;858220;-59
2021/09/16 03:56:36;;;;;;;23.39;11.38;;;;;;;;;;356533;147;857321;-60
2021/09/16 03:57:37;;;;;;;19.03;11.55;;;;;;;;;;359485;148;865205;-60
2021/09/16 03:58:39;;;;;;;20.54;11.20;;;;;;;;;;350415;151;857666;-60
2021/09/16 03:59:40;;;;;;;25.32;12.75;;;;;;;;;;348279;152;857170;-60
2021/09/16 04:00:43;;;;;;;21.63;11.14;;;;;;;;;;359079;147;857202;-60
2021/09/16 04:01:45;;;;;;;18.86;11.18;;;;;;;;;;358012;148;857228;-60
2021/09/16 04:02:46;;;;;;;20.51;11.19;;;;;;;;;;356394;150;857778;-60
2021/09/16 04:03:48;;;;;;;20.39;11.81;;;;;;;;;;359407;147;865080;-60
2021/09/16 04:04:49;;;;;;;21.93;11.46;;;;;;;;;;357954;148;857262;-61
2021/09/16 04:05:51;;;;;;;20.69;11.74;;;;;;;;;;358207;147;857142;-60
2021/09/16 04:06:54;;;;;;;19.95;11.16;;;;;;;;;;357950;147;857364;-61
2021/09/16 04:07:55;;;;;;;22.87;12.65;;;;;;;;;;357367;147;857977;-59
2021/09/16 04:08:57;;;;;;;21.42;11.86;;;;;;;;;;356141;147;857336;-60
2021/09/16 04:09:58;;;;;;;21.96;11.46;;;;;;;;;;357666;148;857542;-61
2021/09/16 04:11:01;;;;;;;23.01;11.76;;;;;;;;;;358754;147;865025;-61
2021/09/16 04:12:03;;;;;;;20.27;11.76;;;;;;;;;;357570;148;857254;-59
2021/09/16 04:13:06;;;;;;;21.53;12.39;;;;;;;;;;355368;148;856428;-61
2021/09/16 04:14:08;;;;;;;25.68;12.02;;;;;;;;;;357827;147;859321;-60
2021/09/16 04:15:11;;;;;;;20.65;11.24;;;;;;;;;;360604;147;858435;-63
2021/09/16 04:16:14;;;;;;;21.24;10.98;;;;;;;;;;358342;149;857155;-61
2021/09/16 04:17:16;;;;;;;19.31;12.01;;;;;;;;;;359513;148;857622;-59
2021/09/16 04:18:17;;;;;;;22.94;11.56;;;;;;;;;;358872;147;865195;-67
2021/09/16 04:19:19;;;;;;;18.38;11.41;;;;;;;;;;356215;147;857247;-60
2021/09/16 04:20:22;;;;;;;24.51;11.23;;;;;;;;;;358915;148;865614;-61
2021/09/16 04:21:24;;;;;;;22.77;11.00;;;;;;;;;;357797;149;857329;-60
2021/09/16 04:22:25;;;;;;;22.66;11.42;;;;;;;;;;357075;147;864132;-64
2021/09/16 04:23:27;;;;;;;21.86;11.41;;;;;;;;;;359435;148;858876;-61
2021/09/16 04:24:29;;;;;;;23.89;11.89;;;;;;;;;;358039;148;858339;-62
2021/09/16 04:25:30;;;;;;;20.11;11.64;;;;;;;;;;356756;147;857189;-64
2021/09/16 04:26:33;;;;;;;18.66;10.91;;;;;;;;;;358017;148;857205;-60
2021/09/16 04:27:35;;;;;;;19.73;10.80;;;;;;;;;;360452;147;857714;-62
2021/09/16 04:28:37;;;;;;;20.46;11.01;;;;;;;;;;356896;148;865603;-62
2021/09/16 04:29:39;;;;;;;19.47;11.40;;;;;;;;;;358371;147;859656;-61
2021/09/16 04:30:41;;;;;;;26.17;11.67;;;;;;;;;;357080;148;865171;-62
2021/09/16 04:31:42;;;;;;;25.21;11.51;;;;;;;;;;359552;147;865261;-60
2021/09/16 04:32:44;;;;;;;26.57;11.34;;;;;;;;;;357963;147;860627;-62
2021/09/16 04:33:45;;;;;;;23.38;11.72;;;;;;;;;;358421;148;857247;-60
2021/09/16 04:34:47;;;;;;;24.79;11.53;;;;;;;;;;358014;148;857411;-62
2021/09/16 04:35:49;;;;;;;22.06;11.45;;;;;;;;;;358513;147;857862;-63
2021/09/16 04:36:51;;;;;;;24.83;11.91;;;;;;;;;;355865;147;859314;-60
2021/09/16 04:37:52;;;;;;;20.37;10.79;;;;;;;;;;359289;148;858747;-59
2021/09/16 04:38:54;;;;;;;24.46;11.05;;;;;;;;;;356349;147;860267;-61
2021/09/16 04:39:55;;;;;;;23.66;11.76;;;;;;;;;;358431;147;858759;-62
2021/09/16 04:40:58;;;;;;;21.07;11.02;;;;;;;;;;358001;148;857938;-59
2021/09/16 04:42:00;;;;;;;19.43;10.84;;;;;;;;;;355721;147;865760;-58
2021/09/16 04:43:01;;;;;;;26.02;10.71;;;;;;;;;;358576;147;864581;-59
2021/09/16 04:44:03;;;;;;;24.34;10.96;;;;;;;;;;356635;147;860430;-59
2021/09/16 04:45:05;;;;;;;20.31;10.85;;;;;;;;;;358558;149;857501;-58
2021/09/16 04:46:07;;;;;;;21.02;11.12;;;;;;;;;;358858;148;858622;-57
2021/09/16 04:47:09;;;;;;;25.18;11.84;;;;;;;;;;357153;147;856267;-58
2021/09/16 04:48:10;;;;;;;24.06;10.80;;;;;;;;;;356013;147;857672;-58
2021/09/16 04:49:12;;;;;;;26.74;11.09;;;;;;;;;;360830;149;857219;-58
2021/09/16 04:50:15;;;;;;;23.96;11.59;;;;;;;;;;357190;148;857252;-58
2021/09/16 04:51:17;;;;;;;25.94;11.25;;;;;;;;;;356394;147;857418;-58
2021/09/16 04:52:18;;;;;;;26.44;11.79;;;;;;;;;;360183;147;857750;-59
2021/09/16 04:53:20;;;;;;;23.45;11.71;;;;;;;;;;359435;148;866326;-59
2021/09/16 04:54:21;;;;;;;23.02;11.19;;;;;;;;;;357235;148;858931;-58
2021/09/16 04:55:23;;;;;;;21.67;10.45;;;;;;;;;;358326;147;866173;-58
2021/09/16 04:56:25;;;;;;;23.61;10.47;;;;;;;;;;358186;147;865097;-59
2021/09/16 04:57:27;;;;;;;22.26;10.71;;;;;;;;;;355457;147;857529;-58
2021/09/16 04:58:28;;;;;;;26.14;10.28;;;;;;;;;;356917;147;858532;-59
2021/09/16 04:59:30;;;;;;;23.04;10.83;;;;;;;;;;357980;147;857422;-58
2021/09/16 05:00:32;;;;;;;26.20;11.01;;;;;;;;;;358650;149;857171;-59
2021/09/16 05:01:34;;;;;;;26.12;10.74;;;;;;;;;;357710;148;857335;-57
2021/09/16 05:02:35;;;;;;;19.17;10.61;;;;;;;;;;359084;147;860928;-59
2021/09/16 05:03:37;;;;;;;25.14;10.89;;;;;;;;;;358770;148;858054;-59
2021/09/16 05:04:38;;;;;;;22.94;10.84;;;;;;;;;;358920;148;865699;-58
2021/09/16 05:05:40;;;;;;;23.79;10.66;;;;;;;;;;359141;147;857833;-58
2021/09/16 05:06:42;;;;;;;22.69;10.35;;;;;;;;;;357456;148;857190;-59
2021/09/16 05:07:44;;;;;;;24.88;9.94;;;;;;;;;;357841;147;858139;-58
2021/09/16 05:08:45;;;;;;;25.49;9.99;;;;;;;;;;357441;147;857394;-58
2021/09/16 05:09:47;;;;;;;20.80;9.89;;;;;;;;;;357281;147;859043;-58
2021/09/16 05:10:48;;;;;;;21.63;10.44;;;;;;;;;;358501;148;858664;-58
2021/09/16 05:11:50;;;;;;;19.24;10.10;;;;;;;;;;359712;148;864664;-59
2021/09/16 05:12:51;;;;;;;21.76;10.43;;;;;;;;;;358272;147;857190;-59
2021/09/16 05:13:53;;;;;;;19.16;10.43;;;;;;;;;;356366;148;864863;-57
2021/09/16 05:14:55;;;;;;;22.78;10.69;;;;;;;;;;358847;148;865420;-58
2021/09/16 05:15:56;;;;;;;20.49;10.41;;;;;;;;;;357948;148;859997;-58
2021/09/16 05:17:00;;;;;;;19.09;9.82;;;;;;;;;;360113;147;864991;-57
2021/09/16 05:18:01;;;;;;;20.09;10.29;;;;;;;;;;358633;148;857789;-59
2021/09/16 05:19:03;;;;;;;20.09;10.55;;;;;;;;;;357512;148;856343;-58
2021/09/16 05:20:05;;;;;;;17.89;9.59;;;;;;;;;;356208;150;865033;-58
2021/09/16 05:21:07;;;;;;;21.01;10.06;;;;;;;;;;358857;144;857380;-59
2021/09/16 05:22:08;;;;;;;18.95;9.72;;;;;;;;;;353105;149;860271;-58
2021/09/16 05:23:10;;;;;;;20.27;10.14;;;;;;;;;;353773;150;864753;-58
2021/09/16 05:24:17;;;;;;;19.06;9.03;;;;;;;;;;354426;150;857283;-58
2021/09/16 05:25:18;;;;;;;20.57;9.39;;;;;;;;;;352785;150;857346;-58
2021/09/16 05:26:20;;;;;;;18.45;9.53;;;;;;;;;;356530;150;856082;-56
2021/09/16 05:27:22;;;;;;;15.94;9.36;;;;;;;;;;351833;150;856956;-57
2021/09/16 05:28:24;;;;;;;17.65;9.96;;;;;;;;;;352000;150;866254;-57
2021/09/16 05:29:25;;;;;;;21.16;10.33;;;;;;;;;;353436;152;858870;-57
2021/09/16 05:30:28;;;;;;;17.49;9.81;;;;;;;;;;352878;149;859089;-58
2021/09/16 05:31:29;;;;;;;17.16;8.96;;;;;;;;;;352296;150;858731;-57
2021/09/16 05:32:31;;;;;;;22.75;9.30;;;;;;;;;;352082;152;864843;-59
2021/09/16 05:33:32;;;;;;;16.91;9.89;;;;;;;;;;352885;152;857211;-58
2021/09/16 05:34:34;;;;;;;21.36;9.74;;;;;;;;;;352190;152;865176;-58
2021/09/16 05:35:37;;;;;;;16.19;9.44;;;;;;;;;;353170;150;857223;-60
2021/09/16 05:36:40;;;;;;;21.62;9.64;;;;;;;;;;353238;152;858892;-59
2021/09/16 05:37:42;;;;;;;17.51;9.25;;;;;;;;;;353056;152;866781;-58
2021/09/16 05:38:43;;;;;;;20.52;8.50;;;;;;;;;;353069;150;859326;-58
2021/09/16 05:39:45;;;;;;;19.36;9.10;;;;;;;;;;352629;149;857266;-59
2021/09/16 05:40:48;;;;;;;20.90;8.14;;;;;;;;;;355228;151;865018;-59
2021/09/16 05:41:49;;;;;;;18.79;7.71;;;;;;;;;;352770;150;858775;-59
2021/09/16 05:42:52;;;;;;;16.52;8.43;;;;;;;;;;352960;149;867236;-59
2021/09/16 05:43:55;;;;;;;20.51;7.76;;;;;;;;;;353265;152;858096;-58
2021/09/16 06:01:46;;;;;;;18.72;9.57;;;;;;;15.94;62.09;100177.17;371564;142;881276;-58
2021/09/16 06:02:48;;;;;;;21.94;10.07;;;;;;;15.85;61.86;100175.62;364018;145;856063;-58
2021/09/16 06:03:50;;;;;;;20.87;10.23;;;;;;;15.79;61.18;100186.22;364822;145;856187;-58
2021/09/16 06:04:51;;;;;;;27.46;10.92;;;;;;;15.72;61.47;100179.45;363434;144;864015;-58
2021/09/16 06:05:53;;;;;;;24.09;11.30;;;;;;;15.65;62.38;100173.54;358620;148;863498;-58
2021/09/16 06:06:55;;;;;;;23.09;11.42;;;;;;;15.56;61.16;100171.16;351756;151;856459;-58